sensor_id;sensor_type;location;lat;lon;timestamp;temperature;humidity
37794;DHT22;23632;48.826;15.176;2023-01-24T00:01:05;5.90;77.70
37794;DHT22;23632;48.826;15.176;2023-01-24T00:03:32;5.90;77.60
37794;DHT22;23632;48.826;15.176;2023-01-24T00:06:00;6.00;77.70
37794;DHT22;23632;48.826;15.176;2023-01-24T00:08:27;6.00;77.70
37794;DHT22;23632;48.826;15.176;2023-01-24T00:11:04;6.00;77.70
37794;DHT22;23632;48.826;15.176;2023-01-24T00:13:32;6.00;77.70
37794;DHT22;23632;48.826;15.176;2023-01-24T00:16:13;6.00;77.70
37794;DHT22;23632;48.826;15.176;2023-01-24T00:18:42;6.00;77.70
37794;DHT22;23632;48.826;15.176;2023-01-24T00:21:17;6.00;77.70
37794;DHT22;23632;48.826;15.176;2023-01-24T00:23:51;6.00;77.60
37794;DHT22;23632;48.826;15.176;2023-01-24T00:26:21;6.00;77.60
37794;DHT22;23632;48.826;15.176;2023-01-24T00:28:49;6.00;77.60
37794;DHT22;23632;48.826;15.176;2023-01-24T00:31:16;6.10;77.60
37794;DHT22;23632;48.826;15.176;2023-01-24T00:33:44;6.10;77.60
37794;DHT22;23632;48.826;15.176;2023-01-24T00:36:11;6.10;77.60
37794;DHT22;23632;48.826;15.176;2023-01-24T00:38:38;6.10;77.60
37794;DHT22;23632;48.826;15.176;2023-01-24T00:41:05;6.10;77.60
37794;DHT22;23632;48.826;15.176;2023-01-24T00:43:32;6.10;77.60
37794;DHT22;23632;48.826;15.176;2023-01-24T00:45:59;6.10;77.60
37794;DHT22;23632;48.826;15.176;2023-01-24T00:48:27;6.10;77.60
37794;DHT22;23632;48.826;15.176;2023-01-24T00:50:54;6.20;77.60
37794;DHT22;23632;48.826;15.176;2023-01-24T00:53:21;6.10;77.50
37794;DHT22;23632;48.826;15.176;2023-01-24T00:55:49;6.10;77.50
37794;DHT22;23632;48.826;15.176;2023-01-24T00:58:17;6.10;77.50
37794;DHT22;23632;48.826;15.176;2023-01-24T01:00:44;6.10;78.30
37794;DHT22;23632;48.826;15.176;2023-01-24T01:03:15;6.10;77.50
37794;DHT22;23632;48.826;15.176;2023-01-24T01:05:44;6.10;77.50
37794;DHT22;23632;48.826;15.176;2023-01-24T01:08:11;6.10;77.50
37794;DHT22;23632;48.826;15.176;2023-01-24T01:10:40;6.10;77.50
37794;DHT22;23632;48.826;15.176;2023-01-24T01:13:07;6.10;77.50
37794;DHT22;23632;48.826;15.176;2023-01-24T01:15:35;6.10;77.50
37794;DHT22;23632;48.826;15.176;2023-01-24T01:18:02;6.10;77.40
37794;DHT22;23632;48.826;15.176;2023-01-24T01:20:29;6.10;77.40
37794;DHT22;23632;48.826;15.176;2023-01-24T01:22:56;6.00;77.40
37794;DHT22;23632;48.826;15.176;2023-01-24T01:25:23;6.10;77.50
37794;DHT22;23632;48.826;15.176;2023-01-24T01:27:51;6.10;77.50
37794;DHT22;23632;48.826;15.176;2023-01-24T01:30:18;6.00;77.50
37794;DHT22;23632;48.826;15.176;2023-01-24T01:32:45;6.00;77.40
37794;DHT22;23632;48.826;15.176;2023-01-24T01:35:13;6.00;77.50
37794;DHT22;23632;48.826;15.176;2023-01-24T01:37:40;6.00;77.50
37794;DHT22;23632;48.826;15.176;2023-01-24T01:40:08;6.00;77.50
37794;DHT22;23632;48.826;15.176;2023-01-24T01:42:51;6.00;77.50
37794;DHT22;23632;48.826;15.176;2023-01-24T01:45:37;6.00;77.50
37794;DHT22;23632;48.826;15.176;2023-01-24T01:51:22;6.00;77.60
37794;DHT22;23632;48.826;15.176;2023-01-24T01:54:02;6.00;77.50
37794;DHT22;23632;48.826;15.176;2023-01-24T01:56:36;6.00;77.60
37794;DHT22;23632;48.826;15.176;2023-01-24T01:59:27;5.90;77.50
37794;DHT22;23632;48.826;15.176;2023-01-24T02:01:57;5.90;77.50
37794;DHT22;23632;48.826;15.176;2023-01-24T02:04:29;6.00;77.60
37794;DHT22;23632;48.826;15.176;2023-01-24T02:07:04;6.00;77.60
37794;DHT22;23632;48.826;15.176;2023-01-24T02:09:39;6.00;77.60
37794;DHT22;23632;48.826;15.176;2023-01-24T02:12:15;6.00;77.60
37794;DHT22;23632;48.826;15.176;2023-01-24T02:14:56;6.00;77.60
37794;DHT22;23632;48.826;15.176;2023-01-24T02:17:44;6.00;77.60
37794;DHT22;23632;48.826;15.176;2023-01-24T02:26:10;6.00;77.60
37794;DHT22;23632;48.826;15.176;2023-01-24T02:28:43;6.00;77.60
37794;DHT22;23632;48.826;15.176;2023-01-24T02:31:13;6.00;77.60
37794;DHT22;23632;48.826;15.176;2023-01-24T02:33:40;6.00;77.60
37794;DHT22;23632;48.826;15.176;2023-01-24T02:39:05;6.00;77.60
37794;DHT22;23632;48.826;15.176;2023-01-24T02:41:45;6.00;77.60
37794;DHT22;23632;48.826;15.176;2023-01-24T02:44:22;6.00;77.60
37794;DHT22;23632;48.826;15.176;2023-01-24T02:46:52;6.00;77.60
37794;DHT22;23632;48.826;15.176;2023-01-24T02:49:19;6.00;77.60
37794;DHT22;23632;48.826;15.176;2023-01-24T02:51:47;5.90;77.50
37794;DHT22;23632;48.826;15.176;2023-01-24T02:54:32;5.90;77.50
37794;DHT22;23632;48.826;15.176;2023-01-24T02:56:59;5.90;77.50
37794;DHT22;23632;48.826;15.176;2023-01-24T02:59:44;5.90;77.50
37794;DHT22;23632;48.826;15.176;2023-01-24T03:02:12;5.90;77.50
37794;DHT22;23632;48.826;15.176;2023-01-24T03:04:39;5.90;77.60
37794;DHT22;23632;48.826;15.176;2023-01-24T03:07:07;5.80;77.50
37794;DHT22;23632;48.826;15.176;2023-01-24T03:09:36;5.80;77.60
37794;DHT22;23632;48.826;15.176;2023-01-24T03:12:07;5.80;77.60
37794;DHT22;23632;48.826;15.176;2023-01-24T03:14:55;5.80;77.60
37794;DHT22;23632;48.826;15.176;2023-01-24T03:17:42;5.80;77.60
37794;DHT22;23632;48.826;15.176;2023-01-24T03:20:28;5.80;77.60
37794;DHT22;23632;48.826;15.176;2023-01-24T03:23:14;5.80;77.60
37794;DHT22;23632;48.826;15.176;2023-01-24T03:26:00;5.80;77.60
37794;DHT22;23632;48.826;15.176;2023-01-24T03:28:46;5.80;77.60
37794;DHT22;23632;48.826;15.176;2023-01-24T03:31:33;5.80;77.70
37794;DHT22;23632;48.826;15.176;2023-01-24T03:34:22;5.80;77.60
37794;DHT22;23632;48.826;15.176;2023-01-24T03:37:00;5.80;77.60
37794;DHT22;23632;48.826;15.176;2023-01-24T03:39:28;5.80;77.60
37794;DHT22;23632;48.826;15.176;2023-01-24T03:42:14;5.80;77.60
37794;DHT22;23632;48.826;15.176;2023-01-24T03:44:45;5.80;77.70
37794;DHT22;23632;48.826;15.176;2023-01-24T03:47:12;5.80;77.70
37794;DHT22;23632;48.826;15.176;2023-01-24T03:49:40;5.80;77.70
37794;DHT22;23632;48.826;15.176;2023-01-24T03:52:26;5.80;77.70
37794;DHT22;23632;48.826;15.176;2023-01-24T03:55:00;5.80;77.70
37794;DHT22;23632;48.826;15.176;2023-01-24T03:57:29;5.80;77.60
37794;DHT22;23632;48.826;15.176;2023-01-24T04:00:01;5.80;77.70
37794;DHT22;23632;48.826;15.176;2023-01-24T04:02:31;5.80;77.60
37794;DHT22;23632;48.826;15.176;2023-01-24T04:04:58;5.70;77.60
37794;DHT22;23632;48.826;15.176;2023-01-24T04:07:42;5.80;77.60
37794;DHT22;23632;48.826;15.176;2023-01-24T04:10:10;5.70;77.50
37794;DHT22;23632;48.826;15.176;2023-01-24T04:12:42;5.70;77.50
37794;DHT22;23632;48.826;15.176;2023-01-24T04:15:18;5.70;77.50
37794;DHT22;23632;48.826;15.176;2023-01-24T04:17:58;5.70;77.60
37794;DHT22;23632;48.826;15.176;2023-01-24T04:20:29;5.70;77.60
37794;DHT22;23632;48.826;15.176;2023-01-24T04:23:06;5.70;77.50
37794;DHT22;23632;48.826;15.176;2023-01-24T04:25:36;5.70;77.60
37794;DHT22;23632;48.826;15.176;2023-01-24T04:28:04;5.70;77.50
37794;DHT22;23632;48.826;15.176;2023-01-24T04:30:33;5.80;77.60
37794;DHT22;23632;48.826;15.176;2023-01-24T04:33:03;5.80;77.60
37794;DHT22;23632;48.826;15.176;2023-01-24T04:35:30;5.80;77.60
37794;DHT22;23632;48.826;15.176;2023-01-24T04:38:00;5.80;77.60
37794;DHT22;23632;48.826;15.176;2023-01-24T04:41:00;5.80;77.60
37794;DHT22;23632;48.826;15.176;2023-01-24T04:43:35;5.70;77.60
37794;DHT22;23632;48.826;15.176;2023-01-24T04:46:03;5.70;77.60
37794;DHT22;23632;48.826;15.176;2023-01-24T04:48:48;5.70;77.60
37794;DHT22;23632;48.826;15.176;2023-01-24T04:51:15;5.70;77.60
37794;DHT22;23632;48.826;15.176;2023-01-24T04:53:45;5.70;77.60
37794;DHT22;23632;48.826;15.176;2023-01-24T04:56:14;5.70;77.60
37794;DHT22;23632;48.826;15.176;2023-01-24T04:58:42;5.70;77.70
37794;DHT22;23632;48.826;15.176;2023-01-24T05:01:09;5.70;77.70
37794;DHT22;23632;48.826;15.176;2023-01-24T05:03:48;5.70;77.60
37794;DHT22;23632;48.826;15.176;2023-01-24T05:06:15;5.70;77.70
37794;DHT22;23632;48.826;15.176;2023-01-24T05:08:42;5.70;77.60
37794;DHT22;23632;48.826;15.176;2023-01-24T05:11:09;5.70;77.60
37794;DHT22;23632;48.826;15.176;2023-01-24T05:13:44;5.70;77.60
37794;DHT22;23632;48.826;15.176;2023-01-24T05:16:12;5.70;77.60
37794;DHT22;23632;48.826;15.176;2023-01-24T05:18:39;5.70;77.60
37794;DHT22;23632;48.826;15.176;2023-01-24T05:21:13;5.70;77.60
37794;DHT22;23632;48.826;15.176;2023-01-24T05:23:42;5.70;77.60
37794;DHT22;23632;48.826;15.176;2023-01-24T05:26:15;5.70;77.60
37794;DHT22;23632;48.826;15.176;2023-01-24T05:28:42;5.70;77.60
37794;DHT22;23632;48.826;15.176;2023-01-24T05:31:09;5.70;77.60
37794;DHT22;23632;48.826;15.176;2023-01-24T05:33:36;5.70;77.60
37794;DHT22;23632;48.826;15.176;2023-01-24T05:36:06;5.70;77.60
37794;DHT22;23632;48.826;15.176;2023-01-24T05:38:36;5.70;77.60
37794;DHT22;23632;48.826;15.176;2023-01-24T05:41:06;5.70;77.60
37794;DHT22;23632;48.826;15.176;2023-01-24T05:43:35;5.70;77.70
37794;DHT22;23632;48.826;15.176;2023-01-24T05:46:06;5.70;77.60
37794;DHT22;23632;48.826;15.176;2023-01-24T05:48:41;5.70;77.60
37794;DHT22;23632;48.826;15.176;2023-01-24T05:51:12;5.70;77.70
37794;DHT22;23632;48.826;15.176;2023-01-24T05:53:41;5.70;77.60
37794;DHT22;23632;48.826;15.176;2023-01-24T05:56:14;5.70;77.60
37794;DHT22;23632;48.826;15.176;2023-01-24T05:58:46;5.70;77.60
37794;DHT22;23632;48.826;15.176;2023-01-24T06:01:18;5.60;77.50
37794;DHT22;23632;48.826;15.176;2023-01-24T06:03:48;5.60;77.50
37794;DHT22;23632;48.826;15.176;2023-01-24T06:06:22;5.70;77.60
37794;DHT22;23632;48.826;15.176;2023-01-24T06:08:51;5.60;77.60
37794;DHT22;23632;48.826;15.176;2023-01-24T06:11:25;5.70;77.60
37794;DHT22;23632;48.826;15.176;2023-01-24T06:14:06;5.70;77.70
37794;DHT22;23632;48.826;15.176;2023-01-24T06:16:33;5.60;77.60
37794;DHT22;23632;48.826;15.176;2023-01-24T06:19:01;5.70;77.60
37794;DHT22;23632;48.826;15.176;2023-01-24T06:24:24;5.60;77.60
37794;DHT22;23632;48.826;15.176;2023-01-24T06:27:22;5.60;77.60
37794;DHT22;23632;48.826;15.176;2023-01-24T06:29:50;5.60;77.60
37794;DHT22;23632;48.826;15.176;2023-01-24T06:32:27;5.60;77.60
37794;DHT22;23632;48.826;15.176;2023-01-24T06:35:17;5.60;77.60
37794;DHT22;23632;48.826;15.176;2023-01-24T06:37:59;5.60;77.70
37794;DHT22;23632;48.826;15.176;2023-01-24T06:40:26;5.70;77.70
37794;DHT22;23632;48.826;15.176;2023-01-24T06:42:54;5.70;77.80
37794;DHT22;23632;48.826;15.176;2023-01-24T06:45:21;5.60;77.60
37794;DHT22;23632;48.826;15.176;2023-01-24T06:47:49;5.70;77.70
37794;DHT22;23632;48.826;15.176;2023-01-24T06:50:20;5.70;77.80
37794;DHT22;23632;48.826;15.176;2023-01-24T06:52:49;5.70;77.80
37794;DHT22;23632;48.826;15.176;2023-01-24T06:55:16;5.70;77.70
37794;DHT22;23632;48.826;15.176;2023-01-24T06:57:43;5.70;77.70
37794;DHT22;23632;48.826;15.176;2023-01-24T07:00:13;5.70;77.60
37794;DHT22;23632;48.826;15.176;2023-01-24T07:02:41;5.70;77.70
37794;DHT22;23632;48.826;15.176;2023-01-24T07:05:08;5.70;77.70
37794;DHT22;23632;48.826;15.176;2023-01-24T07:07:35;5.80;77.70
37794;DHT22;23632;48.826;15.176;2023-01-24T07:10:02;5.80;77.70
37794;DHT22;23632;48.826;15.176;2023-01-24T07:12:30;5.80;77.80
37794;DHT22;23632;48.826;15.176;2023-01-24T07:14:57;5.70;77.60
37794;DHT22;23632;48.826;15.176;2023-01-24T07:17:24;5.70;77.70
37794;DHT22;23632;48.826;15.176;2023-01-24T07:19:51;5.70;77.70
37794;DHT22;23632;48.826;15.176;2023-01-24T07:22:19;5.70;77.70
37794;DHT22;23632;48.826;15.176;2023-01-24T07:24:46;5.70;77.70
37794;DHT22;23632;48.826;15.176;2023-01-24T07:27:14;5.70;77.70
37794;DHT22;23632;48.826;15.176;2023-01-24T07:29:41;5.80;77.80
37794;DHT22;23632;48.826;15.176;2023-01-24T07:32:09;5.80;77.80
37794;DHT22;23632;48.826;15.176;2023-01-24T07:34:37;5.80;77.80
37794;DHT22;23632;48.826;15.176;2023-01-24T07:37:07;5.80;77.80
37794;DHT22;23632;48.826;15.176;2023-01-24T07:39:35;5.80;77.70
37794;DHT22;23632;48.826;15.176;2023-01-24T07:42:01;5.80;77.70
37794;DHT22;23632;48.826;15.176;2023-01-24T07:44:29;5.80;77.70
37794;DHT22;23632;48.826;15.176;2023-01-24T07:46:56;5.90;77.70
37794;DHT22;23632;48.826;15.176;2023-01-24T07:49:23;5.90;77.80
37794;DHT22;23632;48.826;15.176;2023-01-24T07:51:49;5.90;77.80
37794;DHT22;23632;48.826;15.176;2023-01-24T07:54:18;5.90;77.70
37794;DHT22;23632;48.826;15.176;2023-01-24T07:56:46;6.00;77.80
37794;DHT22;23632;48.826;15.176;2023-01-24T07:59:13;6.00;77.80
37794;DHT22;23632;48.826;15.176;2023-01-24T08:01:40;6.00;77.60
37794;DHT22;23632;48.826;15.176;2023-01-24T08:04:08;6.00;77.60
37794;DHT22;23632;48.826;15.176;2023-01-24T08:06:35;6.00;77.50
37794;DHT22;23632;48.826;15.176;2023-01-24T08:09:02;6.00;77.50
37794;DHT22;23632;48.826;15.176;2023-01-24T08:11:29;6.00;77.50
37794;DHT22;23632;48.826;15.176;2023-01-24T08:13:57;5.90;77.40
37794;DHT22;23632;48.826;15.176;2023-01-24T08:16:23;6.00;77.50
37794;DHT22;23632;48.826;15.176;2023-01-24T08:18:52;6.00;77.50
37794;DHT22;23632;48.826;15.176;2023-01-24T08:21:19;5.90;77.40
37794;DHT22;23632;48.826;15.176;2023-01-24T08:23:46;5.90;77.40
37794;DHT22;23632;48.826;15.176;2023-01-24T08:26:13;5.90;77.50
37794;DHT22;23632;48.826;15.176;2023-01-24T08:28:40;5.90;77.40
37794;DHT22;23632;48.826;15.176;2023-01-24T08:31:07;5.90;77.50
37794;DHT22;23632;48.826;15.176;2023-01-24T08:33:35;5.90;77.40
37794;DHT22;23632;48.826;15.176;2023-01-24T08:36:04;6.00;77.50
37794;DHT22;23632;48.826;15.176;2023-01-24T08:38:32;5.90;77.40
37794;DHT22;23632;48.826;15.176;2023-01-24T08:41:04;6.00;77.50
37794;DHT22;23632;48.826;15.176;2023-01-24T08:43:35;6.00;77.50
37794;DHT22;23632;48.826;15.176;2023-01-24T08:46:02;6.00;77.50
37794;DHT22;23632;48.826;15.176;2023-01-24T08:48:29;6.00;77.50
37794;DHT22;23632;48.826;15.176;2023-01-24T08:50:57;6.00;77.50
37794;DHT22;23632;48.826;15.176;2023-01-24T08:53:24;6.00;77.50
37794;DHT22;23632;48.826;15.176;2023-01-24T08:55:51;6.00;77.50
37794;DHT22;23632;48.826;15.176;2023-01-24T08:58:18;6.00;77.60
37794;DHT22;23632;48.826;15.176;2023-01-24T09:00:45;6.10;77.70
37794;DHT22;23632;48.826;15.176;2023-01-24T09:03:15;6.10;77.60
37794;DHT22;23632;48.826;15.176;2023-01-24T09:05:43;6.10;77.60
37794;DHT22;23632;48.826;15.176;2023-01-24T09:08:11;6.10;77.60
37794;DHT22;23632;48.826;15.176;2023-01-24T09:10:38;6.20;77.50
37794;DHT22;23632;48.826;15.176;2023-01-24T09:13:07;6.20;77.50
37794;DHT22;23632;48.826;15.176;2023-01-24T09:15:34;6.30;77.60
37794;DHT22;23632;48.826;15.176;2023-01-24T09:18:01;6.30;77.50
37794;DHT22;23632;48.826;15.176;2023-01-24T09:20:31;6.30;77.50
37794;DHT22;23632;48.826;15.176;2023-01-24T09:22:58;6.30;77.50
37794;DHT22;23632;48.826;15.176;2023-01-24T09:25:26;6.40;77.40
37794;DHT22;23632;48.826;15.176;2023-01-24T09:27:54;6.40;77.40
37794;DHT22;23632;48.826;15.176;2023-01-24T09:30:22;6.40;77.40
37794;DHT22;23632;48.826;15.176;2023-01-24T09:32:51;6.40;77.40
37794;DHT22;23632;48.826;15.176;2023-01-24T09:35:18;6.50;77.20
37794;DHT22;23632;48.826;15.176;2023-01-24T09:37:45;6.50;77.30
37794;DHT22;23632;48.826;15.176;2023-01-24T09:40:26;6.50;77.40
37794;DHT22;23632;48.826;15.176;2023-01-24T09:43:30;6.50;77.30
37794;DHT22;23632;48.826;15.176;2023-01-24T09:46:05;6.60;77.40
37794;DHT22;23632;48.826;15.176;2023-01-24T09:48:40;6.70;77.50
37794;DHT22;23632;48.826;15.176;2023-01-24T09:51:21;6.70;77.40
37794;DHT22;23632;48.826;15.176;2023-01-24T09:53:57;6.70;77.10
37794;DHT22;23632;48.826;15.176;2023-01-24T09:56:33;6.80;77.00
37794;DHT22;23632;48.826;15.176;2023-01-24T09:59:42;6.80;77.00
37794;DHT22;23632;48.826;15.176;2023-01-24T10:02:20;6.80;76.50
37794;DHT22;23632;48.826;15.176;2023-01-24T10:04:48;6.90;76.70
37794;DHT22;23632;48.826;15.176;2023-01-24T10:25:06;7.20;77.00
37794;DHT22;23632;48.826;15.176;2023-01-24T10:27:43;7.20;76.80
37794;DHT22;23632;48.826;15.176;2023-01-24T10:33:16;7.30;76.80
37794;DHT22;23632;48.826;15.176;2023-01-24T10:36:04;7.40;77.00
37794;DHT22;23632;48.826;15.176;2023-01-24T10:38:36;7.40;76.50
37794;DHT22;23632;48.826;15.176;2023-01-24T10:41:24;7.50;76.70
37794;DHT22;23632;48.826;15.176;2023-01-24T10:44:14;7.50;76.10
37794;DHT22;23632;48.826;15.176;2023-01-24T10:46:57;7.50;76.20
37794;DHT22;23632;48.826;15.176;2023-01-24T10:49:38;7.50;76.40
37794;DHT22;23632;48.826;15.176;2023-01-24T10:52:11;7.50;76.40
37794;DHT22;23632;48.826;15.176;2023-01-24T10:54:58;7.50;76.40
37794;DHT22;23632;48.826;15.176;2023-01-24T11:00:32;7.50;76.30
37794;DHT22;23632;48.826;15.176;2023-01-24T11:03:04;7.50;76.20
37794;DHT22;23632;48.826;15.176;2023-01-24T11:05:43;7.60;76.40
37794;DHT22;23632;48.826;15.176;2023-01-24T11:08:24;7.60;76.30
37794;DHT22;23632;48.826;15.176;2023-01-24T11:11:03;7.60;76.10
37794;DHT22;23632;48.826;15.176;2023-01-24T11:13:45;7.60;76.40
37794;DHT22;23632;48.826;15.176;2023-01-24T11:18:54;7.70;76.20
37794;DHT22;23632;48.826;15.176;2023-01-24T11:21:25;7.70;75.90
37794;DHT22;23632;48.826;15.176;2023-01-24T11:24:14;7.70;76.70
37794;DHT22;23632;48.826;15.176;2023-01-24T11:26:54;7.70;75.50
37794;DHT22;23632;48.826;15.176;2023-01-24T11:29:24;7.70;75.70
37794;DHT22;23632;48.826;15.176;2023-01-24T11:31:54;7.70;75.70
37794;DHT22;23632;48.826;15.176;2023-01-24T11:40:43;7.60;75.10
37794;DHT22;23632;48.826;15.176;2023-01-24T11:55:37;7.50;75.30
37794;DHT22;23632;48.826;15.176;2023-01-24T11:58:29;7.40;75.40
37794;DHT22;23632;48.826;15.176;2023-01-24T12:13:47;7.40;75.30
37794;DHT22;23632;48.826;15.176;2023-01-24T12:16:41;7.30;75.30
37794;DHT22;23632;48.826;15.176;2023-01-24T12:22:21;7.30;75.10
37794;DHT22;23632;48.826;15.176;2023-01-24T12:25:10;7.20;75.10
37794;DHT22;23632;48.826;15.176;2023-01-24T12:27:45;7.20;75.00
37794;DHT22;23632;48.826;15.176;2023-01-24T12:30:28;7.10;75.20
37794;DHT22;23632;48.826;15.176;2023-01-24T12:36:04;7.10;75.30
37794;DHT22;23632;48.826;15.176;2023-01-24T12:38:45;7.00;75.20
37794;DHT22;23632;48.826;15.176;2023-01-24T12:41:20;7.00;75.20
37794;DHT22;23632;48.826;15.176;2023-01-24T12:44:25;7.00;75.40
37794;DHT22;23632;48.826;15.176;2023-01-24T12:52:40;7.00;75.40
37794;DHT22;23632;48.826;15.176;2023-01-24T12:58:04;7.00;75.50
37794;DHT22;23632;48.826;15.176;2023-01-24T13:09:46;7.00;75.20
37794;DHT22;23632;48.826;15.176;2023-01-24T13:12:52;7.00;75.30
37794;DHT22;23632;48.826;15.176;2023-01-24T13:18:47;7.00;75.30
37794;DHT22;23632;48.826;15.176;2023-01-24T13:27:44;6.90;75.00
37794;DHT22;23632;48.826;15.176;2023-01-24T13:30:29;6.90;75.00
37794;DHT22;23632;48.826;15.176;2023-01-24T13:33:02;6.90;75.00
37794;DHT22;23632;48.826;15.176;2023-01-24T13:35:31;6.80;75.20
37794;DHT22;23632;48.826;15.176;2023-01-24T13:38:02;6.80;75.30
37794;DHT22;23632;48.826;15.176;2023-01-24T13:40:33;6.80;75.30
37794;DHT22;23632;48.826;15.176;2023-01-24T13:43:47;6.80;75.20
37794;DHT22;23632;48.826;15.176;2023-01-24T13:46:03;6.80;75.10
37794;DHT22;23632;48.826;15.176;2023-01-24T13:54:06;6.70;75.10
37794;DHT22;23632;48.826;15.176;2023-01-24T14:08:14;6.60;75.10
37794;DHT22;23632;48.826;15.176;2023-01-24T14:21:59;6.40;75.20
37794;DHT22;23632;48.826;15.176;2023-01-24T14:24:36;6.30;75.10
37794;DHT22;23632;48.826;15.176;2023-01-24T14:27:18;6.30;75.10
37794;DHT22;23632;48.826;15.176;2023-01-24T14:29:49;6.30;75.30
37794;DHT22;23632;48.826;15.176;2023-01-24T14:32:25;6.30;75.30
37794;DHT22;23632;48.826;15.176;2023-01-24T14:35:19;6.30;75.20
37794;DHT22;23632;48.826;15.176;2023-01-24T14:37:49;6.20;75.20
37794;DHT22;23632;48.826;15.176;2023-01-24T14:40:23;6.20;75.30
37794;DHT22;23632;48.826;15.176;2023-01-24T14:43:03;6.20;75.30
37794;DHT22;23632;48.826;15.176;2023-01-24T14:45:33;6.20;75.20
37794;DHT22;23632;48.826;15.176;2023-01-24T14:48:05;6.20;75.00
37794;DHT22;23632;48.826;15.176;2023-01-24T14:50:36;6.10;75.00
37794;DHT22;23632;48.826;15.176;2023-01-24T14:53:23;6.10;75.00
37794;DHT22;23632;48.826;15.176;2023-01-24T14:55:59;6.10;75.10
37794;DHT22;23632;48.826;15.176;2023-01-24T14:58:35;6.10;75.20
37794;DHT22;23632;48.826;15.176;2023-01-24T15:01:03;6.00;75.10
37794;DHT22;23632;48.826;15.176;2023-01-24T15:03:32;6.00;75.00
37794;DHT22;23632;48.826;15.176;2023-01-24T15:08:30;6.00;75.00
37794;DHT22;23632;48.826;15.176;2023-01-24T15:11:01;6.00;75.10
37794;DHT22;23632;48.826;15.176;2023-01-24T15:13:35;6.00;75.00
37794;DHT22;23632;48.826;15.176;2023-01-24T15:16:21;5.90;75.00
37794;DHT22;23632;48.826;15.176;2023-01-24T15:18:53;5.90;75.00
37794;DHT22;23632;48.826;15.176;2023-01-24T15:23:56;5.90;75.10
37794;DHT22;23632;48.826;15.176;2023-01-24T15:28:54;5.90;75.00
37794;DHT22;23632;48.826;15.176;2023-01-24T15:31:26;5.90;75.00
37794;DHT22;23632;48.826;15.176;2023-01-24T15:33:59;5.90;75.10
37794;DHT22;23632;48.826;15.176;2023-01-24T15:36:29;5.80;75.00
37794;DHT22;23632;48.826;15.176;2023-01-24T15:38:59;5.80;75.10
37794;DHT22;23632;48.826;15.176;2023-01-24T15:41:30;5.80;75.20
37794;DHT22;23632;48.826;15.176;2023-01-24T15:44:20;5.80;75.00
37794;DHT22;23632;48.826;15.176;2023-01-24T15:46:56;5.80;75.10
37794;DHT22;23632;48.826;15.176;2023-01-24T15:49:57;5.70;74.90
37794;DHT22;23632;48.826;15.176;2023-01-24T15:52:27;5.70;75.00
37794;DHT22;23632;48.826;15.176;2023-01-24T15:54:58;5.70;75.10
37794;DHT22;23632;48.826;15.176;2023-01-24T15:57:34;5.60;75.00
37794;DHT22;23632;48.826;15.176;2023-01-24T16:02:37;5.70;75.20
37794;DHT22;23632;48.826;15.176;2023-01-24T16:05:12;5.60;75.20
37794;DHT22;23632;48.826;15.176;2023-01-24T16:07:43;5.60;75.30
37794;DHT22;23632;48.826;15.176;2023-01-24T16:10:14;5.70;75.30
37794;DHT22;23632;48.826;15.176;2023-01-24T16:12:42;5.70;75.30
37794;DHT22;23632;48.826;15.176;2023-01-24T16:15:18;5.70;75.40
37794;DHT22;23632;48.826;15.176;2023-01-24T16:17:47;5.70;75.30
37794;DHT22;23632;48.826;15.176;2023-01-24T16:20:20;5.70;75.40
37794;DHT22;23632;48.826;15.176;2023-01-24T16:22:48;5.70;75.30
37794;DHT22;23632;48.826;15.176;2023-01-24T16:25:16;5.70;75.40
37794;DHT22;23632;48.826;15.176;2023-01-24T16:27:46;5.70;75.40
37794;DHT22;23632;48.826;15.176;2023-01-24T16:30:20;5.70;75.40
37794;DHT22;23632;48.826;15.176;2023-01-24T16:32:49;5.70;75.40
37794;DHT22;23632;48.826;15.176;2023-01-24T16:35:17;5.70;75.50
37794;DHT22;23632;48.826;15.176;2023-01-24T16:37:44;5.80;75.50
37794;DHT22;23632;48.826;15.176;2023-01-24T16:40:14;5.80;75.50
37794;DHT22;23632;48.826;15.176;2023-01-24T16:42:44;5.80;75.50
37794;DHT22;23632;48.826;15.176;2023-01-24T16:45:21;5.80;75.60
37794;DHT22;23632;48.826;15.176;2023-01-24T16:47:54;5.80;75.50
37794;DHT22;23632;48.826;15.176;2023-01-24T16:50:22;5.80;75.50
37794;DHT22;23632;48.826;15.176;2023-01-24T16:52:49;5.80;75.50
37794;DHT22;23632;48.826;15.176;2023-01-24T16:55:16;5.80;75.40
37794;DHT22;23632;48.826;15.176;2023-01-24T16:57:43;5.80;75.40
37794;DHT22;23632;48.826;15.176;2023-01-24T17:00:11;5.80;75.20
37794;DHT22;23632;48.826;15.176;2023-01-24T17:02:40;5.80;75.30
37794;DHT22;23632;48.826;15.176;2023-01-24T17:05:10;5.80;75.30
37794;DHT22;23632;48.826;15.176;2023-01-24T17:07:37;5.80;75.40
37794;DHT22;23632;48.826;15.176;2023-01-24T17:10:05;5.80;75.40
37794;DHT22;23632;48.826;15.176;2023-01-24T17:12:33;5.80;75.40
37794;DHT22;23632;48.826;15.176;2023-01-24T17:15:00;5.80;75.40
37794;DHT22;23632;48.826;15.176;2023-01-24T17:17:27;5.70;75.10
37794;DHT22;23632;48.826;15.176;2023-01-24T17:19:54;5.70;75.30
37794;DHT22;23632;48.826;15.176;2023-01-24T17:22:21;5.70;75.20
37794;DHT22;23632;48.826;15.176;2023-01-24T17:24:48;5.70;75.20
37794;DHT22;23632;48.826;15.176;2023-01-24T17:27:15;5.70;75.30
37794;DHT22;23632;48.826;15.176;2023-01-24T17:29:42;5.70;75.30
37794;DHT22;23632;48.826;15.176;2023-01-24T17:32:10;5.70;75.30
37794;DHT22;23632;48.826;15.176;2023-01-24T17:34:38;5.70;75.30
37794;DHT22;23632;48.826;15.176;2023-01-24T17:37:05;5.70;75.30
37794;DHT22;23632;48.826;15.176;2023-01-24T17:39:32;5.70;75.30
37794;DHT22;23632;48.826;15.176;2023-01-24T17:41:59;5.70;75.30
37794;DHT22;23632;48.826;15.176;2023-01-24T17:44:27;5.70;75.30
37794;DHT22;23632;48.826;15.176;2023-01-24T17:46:54;5.70;75.30
37794;DHT22;23632;48.826;15.176;2023-01-24T17:49:21;5.70;75.30
37794;DHT22;23632;48.826;15.176;2023-01-24T17:51:49;5.70;75.30
37794;DHT22;23632;48.826;15.176;2023-01-24T17:54:16;5.70;75.30
37794;DHT22;23632;48.826;15.176;2023-01-24T17:56:44;5.70;75.30
37794;DHT22;23632;48.826;15.176;2023-01-24T17:59:11;5.70;75.20
37794;DHT22;23632;48.826;15.176;2023-01-24T18:01:38;5.70;75.30
37794;DHT22;23632;48.826;15.176;2023-01-24T18:04:05;5.70;76.10
37794;DHT22;23632;48.826;15.176;2023-01-24T18:06:32;5.70;75.30
37794;DHT22;23632;48.826;15.176;2023-01-24T18:08:59;5.70;75.30
37794;DHT22;23632;48.826;15.176;2023-01-24T18:11:26;5.70;75.30
37794;DHT22;23632;48.826;15.176;2023-01-24T18:13:53;5.70;75.30
37794;DHT22;23632;48.826;15.176;2023-01-24T18:16:21;5.70;75.30
37794;DHT22;23632;48.826;15.176;2023-01-24T18:18:49;5.70;75.40
37794;DHT22;23632;48.826;15.176;2023-01-24T18:21:21;5.80;75.30
37794;DHT22;23632;48.826;15.176;2023-01-24T18:23:57;5.70;75.20
37794;DHT22;23632;48.826;15.176;2023-01-24T18:26:27;5.70;75.20